createdAt,value
2022-12-11T00:03:41.521Z,17.63
2022-12-11T00:08:33.197Z,19.13
2022-12-11T00:13:24.801Z,18.73
2022-12-11T00:18:17.189Z,19.47
2022-12-11T00:23:08.833Z,18.93
2022-12-11T00:28:01.115Z,19.83
2022-12-11T00:32:52.712Z,21.33
2022-12-11T00:37:44.228Z,21.37
2022-12-11T00:42:35.823Z,19.47
2022-12-11T00:47:28.251Z,20.73
2022-12-11T00:52:19.830Z,19.90
2022-12-11T00:57:11.542Z,20.53
2022-12-11T01:02:03.136Z,19.93
2022-12-11T01:06:54.707Z,21.73
2022-12-11T01:11:46.291Z,20.60
2022-12-11T01:16:37.942Z,20.73
2022-12-11T01:21:30.012Z,20.23
2022-12-11T01:26:21.833Z,18.70
2022-12-11T01:31:16.549Z,18.03
2022-12-11T01:36:14.942Z,19.77
2022-12-11T01:41:07.403Z,19.83
2022-12-11T01:45:59.189Z,18.07
2022-12-11T01:50:54.554Z,18.03
2022-12-11T01:55:48.339Z,18.23
2022-12-11T02:00:40.189Z,18.03
2022-12-11T02:05:32.393Z,18.50
2022-12-11T02:11:02.558Z,18.07
2022-12-11T02:16:03.103Z,17.63
2022-12-11T02:21:03.114Z,19.03
2022-12-11T02:26:12.291Z,17.20
2022-12-11T02:31:10.338Z,18.60
2022-12-11T02:36:04.960Z,17.97
2022-12-11T02:40:58.857Z,17.93
2022-12-11T02:45:53.563Z,18.00
2022-12-11T02:50:52.834Z,16.30
2022-12-11T02:55:45.893Z,18.03
2022-12-11T03:00:37.455Z,18.20
2022-12-11T03:05:29.751Z,16.60
2022-12-11T03:10:21.347Z,16.50
2022-12-11T03:15:15.715Z,15.07
2022-12-11T03:20:20.008Z,16.47
2022-12-11T03:25:26.025Z,14.03
2022-12-11T03:30:21.437Z,13.90
2022-12-11T03:35:33.903Z,15.57
2022-12-11T03:40:26.994Z,13.90
2022-12-11T03:45:21.583Z,14.63
2022-12-11T03:50:15.242Z,14.30
2022-12-11T03:55:09.009Z,14.13
2022-12-11T04:00:01.063Z,13.80
2022-12-11T04:04:52.717Z,13.73
2022-12-11T04:09:44.254Z,15.27
2022-12-11T04:14:55.200Z,13.30
2022-12-11T04:20:05.394Z,12.77
2022-12-11T04:24:57.114Z,13.57
2022-12-11T04:29:48.645Z,13.00
2022-12-11T04:34:40.723Z,12.30
2022-12-11T04:39:32.384Z,10.83
2022-12-11T04:44:23.943Z,11.53
2022-12-11T04:49:15.604Z,10.97
2022-12-11T04:54:07.165Z,10.40
2022-12-11T04:58:58.762Z,11.93
2022-12-11T05:03:50.453Z,10.63
2022-12-11T05:08:42.939Z,11.17
2022-12-11T05:13:34.469Z,11.40
2022-12-11T05:18:26.445Z,11.30
2022-12-11T05:23:17.953Z,11.40
2022-12-11T05:28:09.553Z,11.47
2022-12-11T05:33:01.096Z,11.03
2022-12-11T05:37:52.621Z,11.97
2022-12-11T05:42:44.167Z,10.33
2022-12-11T05:47:36.169Z,10.80
2022-12-11T05:52:27.772Z,10.27
2022-12-11T05:57:21.036Z,10.63
2022-12-11T06:02:13.107Z,11.37
2022-12-11T06:07:04.777Z,11.90
2022-12-11T06:11:56.324Z,10.63
2022-12-11T06:16:47.879Z,11.53
2022-12-11T06:21:39.434Z,11.80
2022-12-11T06:26:32.048Z,12.10
2022-12-11T06:31:23.704Z,11.30
2022-12-11T06:36:21.389Z,12.17
2022-12-11T06:41:13.562Z,11.57
2022-12-11T06:46:07.251Z,12.27
2022-12-11T06:50:59.073Z,12.87
2022-12-11T06:55:52.008Z,11.17
2022-12-11T07:00:43.699Z,12.37
2022-12-11T07:05:35.667Z,12.57
2022-12-11T07:10:27.289Z,13.07
2022-12-11T07:15:19.177Z,13.00
2022-12-11T07:20:11.045Z,12.67
2022-12-11T07:25:02.740Z,13.40
2022-12-11T07:29:55.508Z,13.60
2022-12-11T07:34:51.934Z,13.47
2022-12-11T07:39:43.854Z,13.33
2022-12-11T07:44:36.718Z,13.27
2022-12-11T07:49:28.427Z,12.37
2022-12-11T07:54:21.022Z,12.80
2022-12-11T07:59:13.560Z,11.57
2022-12-11T08:04:08.052Z,12.23
2022-12-11T08:09:01.126Z,12.03
2022-12-11T08:13:53.491Z,11.83
2022-12-11T08:18:46.846Z,10.57
2022-12-11T08:23:39.245Z,11.77
2022-12-11T08:28:31.095Z,11.90
2022-12-11T08:33:22.671Z,11.87
2022-12-11T08:38:14.366Z,11.37
2022-12-11T08:43:06.379Z,11.60
2022-12-11T08:48:01.080Z,13.00
2022-12-11T08:52:53.682Z,11.90
2022-12-11T08:57:45.265Z,11.80
2022-12-11T09:02:36.819Z,10.83
2022-12-11T09:07:28.370Z,11.37
2022-12-11T09:12:20.783Z,12.57
2022-12-11T09:17:12.371Z,13.20
2022-12-11T09:22:03.942Z,12.07
2022-12-11T09:26:55.597Z,13.50
2022-12-11T09:31:48.551Z,12.77
2022-12-11T09:36:41.969Z,12.13
2022-12-11T09:41:55.008Z,14.43
2022-12-11T09:46:46.852Z,14.43
2022-12-11T09:51:51.921Z,13.00
2022-12-11T09:56:52.978Z,13.37
2022-12-11T10:01:59.145Z,13.20
2022-12-11T10:06:57.245Z,14.37
2022-12-11T10:12:16.412Z,14.67
2022-12-11T10:17:17.216Z,14.67
2022-12-11T10:22:18.924Z,14.83
2022-12-11T10:27:19.794Z,15.27
2022-12-11T10:32:28.019Z,15.07
2022-12-11T10:37:19.812Z,16.50
2022-12-11T10:42:21.015Z,18.00
2022-12-11T10:47:15.579Z,19.13
2022-12-11T10:52:23.196Z,19.03
2022-12-11T10:57:15.783Z,19.30
2022-12-11T11:02:42.696Z,21.53
2022-12-11T11:07:34.420Z,20.50
2022-12-11T11:12:28.783Z,23.37
2022-12-11T11:17:20.349Z,23.83
2022-12-11T11:22:17.982Z,23.27
2022-12-11T11:27:35.663Z,22.80
2022-12-11T11:32:34.360Z,19.90
2022-12-11T11:37:35.088Z,18.77
2022-12-11T11:42:39.356Z,18.50
2022-12-11T11:47:41.153Z,17.83
2022-12-11T11:52:40.845Z,17.33
2022-12-11T11:57:42.969Z,16.03
2022-12-11T12:02:34.622Z,16.13
2022-12-11T12:07:52.457Z,15.93
2022-12-11T12:13:44.352Z,15.27
2022-12-11T12:18:41.044Z,15.10
2022-12-11T12:23:53.004Z,16.70
2022-12-11T12:28:58.168Z,16.57
2022-12-11T12:33:55.790Z,17.50
2022-12-11T12:38:58.802Z,19.30
2022-12-11T12:44:10.733Z,19.00
2022-12-11T12:49:04.119Z,20.37
2022-12-11T12:53:59.229Z,17.57
2022-12-11T12:58:50.816Z,17.03
2022-12-11T13:04:54.001Z,16.60
2022-12-11T13:09:39.093Z,16.63
2022-12-11T13:14:32.546Z,16.03
2022-12-11T13:19:24.177Z,15.37
2022-12-11T13:24:21.862Z,15.63
2022-12-11T13:29:31.704Z,15.47
2022-12-11T13:34:24.265Z,15.20
2022-12-11T13:39:30.469Z,14.93
2022-12-11T13:44:32.797Z,13.13
2022-12-11T13:49:28.538Z,11.93
2022-12-11T13:54:21.785Z,13.37
2022-12-11T13:59:51.026Z,13.53
2022-12-11T14:04:44.937Z,13.00
2022-12-11T14:09:44.175Z,13.93
2022-12-11T14:14:46.397Z,12.57
2022-12-11T14:19:39.171Z,13.30
2022-12-11T14:24:31.946Z,14.30
2022-12-11T14:29:29.757Z,13.30
2022-12-11T14:34:26.836Z,11.97
2022-12-11T14:39:28.814Z,13.17
2022-12-11T14:44:24.076Z,13.03
2022-12-11T14:49:23.944Z,11.93
2022-12-11T14:54:29.544Z,12.60
2022-12-11T14:59:28.508Z,11.63
2022-12-11T15:04:28.389Z,12.43
2022-12-11T15:09:38.325Z,13.50
2022-12-11T15:14:29.990Z,12.63
2022-12-11T15:19:31.958Z,13.27
2022-12-11T15:24:37.564Z,14.40
2022-12-11T15:29:40.208Z,13.87
2022-12-11T15:34:42.090Z,15.50
2022-12-11T15:39:33.696Z,14.93
2022-12-11T15:44:26.052Z,15.40
2022-12-11T15:49:18.982Z,14.60
2022-12-11T15:54:10.893Z,15.67
2022-12-11T15:59:06.693Z,15.17
2022-12-11T16:04:03.317Z,14.97
2022-12-11T16:08:56.620Z,14.50
2022-12-11T16:13:48.164Z,13.87
2022-12-11T16:18:39.808Z,15.40
2022-12-11T16:23:32.849Z,15.00
2022-12-11T16:28:24.432Z,14.07
2022-12-11T16:33:16.425Z,14.50
2022-12-11T16:38:08.193Z,14.70
2022-12-11T16:43:01.021Z,13.93
2022-12-11T16:47:54.342Z,14.67
2022-12-11T16:52:46.080Z,14.70
2022-12-11T16:57:38.000Z,14.50
2022-12-11T17:02:29.922Z,13.70
2022-12-11T17:07:21.598Z,13.73
2022-12-11T17:12:14.004Z,15.70
2022-12-11T17:17:05.654Z,14.27
2022-12-11T17:21:59.312Z,15.03
2022-12-11T17:26:50.880Z,14.93
2022-12-11T17:31:42.433Z,15.03
2022-12-11T17:36:34.045Z,15.17
2022-12-11T17:41:26.077Z,14.93
2022-12-11T17:46:18.948Z,16.43
2022-12-11T17:51:13.631Z,14.90
2022-12-11T17:56:08.374Z,16.10
2022-12-11T18:01:00.653Z,15.40
2022-12-11T18:05:55.051Z,16.13
2022-12-11T18:10:49.216Z,16.23
2022-12-11T18:15:41.117Z,15.53
2022-12-11T18:20:34.307Z,15.50
2022-12-11T18:25:26.426Z,15.07
2022-12-11T18:30:18.502Z,15.07
2022-12-11T18:35:11.362Z,15.57
2022-12-11T18:40:04.484Z,16.70
2022-12-11T18:44:56.111Z,16.77
2022-12-11T18:49:47.676Z,16.30
2022-12-11T18:54:39.259Z,16.10
2022-12-11T18:59:30.851Z,16.53
2022-12-11T19:04:22.441Z,15.40
2022-12-11T19:09:13.997Z,16.57
2022-12-11T19:14:06.128Z,15.70
2022-12-11T19:18:59.423Z,14.50
2022-12-11T19:23:51.239Z,15.80
2022-12-11T19:28:43.165Z,15.40
2022-12-11T19:33:34.734Z,14.57
2022-12-11T19:38:26.351Z,13.60
2022-12-11T19:43:19.538Z,15.27
2022-12-11T19:48:11.229Z,15.00
2022-12-11T19:53:04.009Z,15.50
2022-12-11T19:57:56.098Z,15.03
2022-12-11T20:02:49.032Z,15.57
2022-12-11T20:07:40.725Z,14.63
2022-12-11T20:12:32.611Z,15.67
2022-12-11T20:17:25.142Z,15.67
2022-12-11T20:22:16.717Z,16.30
2022-12-11T20:27:10.660Z,15.07
2022-12-11T20:32:02.403Z,15.80
2022-12-11T20:36:54.576Z,14.73
2022-12-11T20:41:46.163Z,15.27
2022-12-11T20:46:37.699Z,14.37
2022-12-11T20:51:29.843Z,14.40
2022-12-11T20:56:22.137Z,14.43
2022-12-11T21:01:22.443Z,15.20
2022-12-11T21:06:32.361Z,14.90
2022-12-11T21:11:24.202Z,14.40
2022-12-11T21:16:16.033Z,13.70
2022-12-11T21:21:07.690Z,13.43
2022-12-11T21:25:59.694Z,13.00
2022-12-11T21:30:51.272Z,14.17
2022-12-11T21:35:43.477Z,12.67
2022-12-11T21:40:35.456Z,14.20
2022-12-11T21:50:39.341Z,13.90
2022-12-11T21:55:30.869Z,13.67
2022-12-11T22:00:23.057Z,13.60
2022-12-11T22:05:15.216Z,13.80
2022-12-11T22:22:39.531Z,13.00
2022-12-11T22:27:31.149Z,13.20
2022-12-11T22:32:24.208Z,13.37
2022-12-11T22:37:16.085Z,15.10
2022-12-11T22:42:07.616Z,13.30
2022-12-11T22:46:59.178Z,14.00
2022-12-11T22:51:50.735Z,13.97
2022-12-11T22:56:43.173Z,13.03
2022-12-11T23:01:34.768Z,12.97
2022-12-11T23:06:26.429Z,14.60
2022-12-11T23:11:19.817Z,13.87
2022-12-11T23:16:11.610Z,14.17
2022-12-11T23:21:04.157Z,13.90
2022-12-11T23:25:56.641Z,13.13
2022-12-11T23:30:48.466Z,14.40
2022-12-11T23:35:40.116Z,14.00
2022-12-11T23:40:32.806Z,13.97
2022-12-11T23:45:24.469Z,13.40
2022-12-11T23:50:16.134Z,13.70
2022-12-11T23:55:08.438Z,13.27
